createdAt,value
2023-06-25T00:00:56.042Z,7.22
2023-06-25T00:06:03.263Z,6.95
2023-06-25T00:11:10.646Z,7.76
2023-06-25T00:16:18.019Z,7.92
2023-06-25T00:21:25.417Z,8.09
2023-06-25T00:26:32.675Z,7.73
2023-06-25T00:31:40.209Z,7.77
2023-06-25T00:36:47.352Z,8.17
2023-06-25T00:41:54.756Z,8.83
2023-06-25T00:47:01.937Z,8.68
2023-06-25T00:52:09.294Z,8.34
2023-06-25T00:57:16.732Z,7.93
2023-06-25T01:02:23.937Z,8.09
2023-06-25T01:07:31.163Z,7.63
2023-06-25T01:12:38.484Z,7.10
2023-06-25T01:17:45.833Z,7.96
2023-06-25T01:22:53.090Z,8.66
2023-06-25T01:28:00.380Z,8.90
2023-06-25T01:33:07.695Z,7.78
2023-06-25T01:38:14.818Z,8.56
2023-06-25T01:43:22.346Z,8.80
2023-06-25T01:48:29.640Z,8.31
2023-06-25T01:53:37.103Z,8.36
2023-06-25T01:58:44.283Z,8.18
2023-06-25T02:03:51.955Z,8.32
2023-06-25T02:08:58.969Z,8.16
2023-06-25T02:14:06.330Z,8.41
2023-06-25T02:19:13.545Z,8.35
2023-06-25T02:24:20.846Z,9.04
2023-06-25T02:29:28.103Z,8.73
2023-06-25T02:34:35.527Z,8.72
2023-06-25T02:39:42.708Z,9.89
2023-06-25T02:44:49.953Z,10.70
2023-06-25T02:49:57.194Z,9.62
2023-06-25T02:55:04.555Z,11.07
2023-06-25T03:00:11.800Z,12.66
2023-06-25T03:05:19.066Z,12.97
2023-06-25T03:10:26.325Z,11.25
2023-06-25T03:15:33.678Z,12.44
2023-06-25T03:20:40.926Z,15.97
2023-06-25T03:25:48.429Z,20.15
2023-06-25T03:30:55.613Z,21.88
2023-06-25T03:36:02.885Z,24.04
2023-06-25T03:41:10.140Z,22.44
2023-06-25T03:46:17.499Z,21.51
2023-06-25T03:51:24.776Z,21.75
2023-06-25T03:56:32.241Z,21.99
2023-06-25T04:01:39.413Z,20.27
2023-06-25T04:06:46.808Z,21.20
2023-06-25T04:11:54.059Z,22.74
2023-06-25T04:17:01.368Z,21.86
2023-06-25T04:22:08.684Z,21.77
2023-06-25T04:27:16.189Z,22.79
2023-06-25T04:32:23.457Z,22.39
2023-06-25T04:37:30.829Z,21.63
2023-06-25T04:42:38.060Z,21.22
2023-06-25T04:47:45.427Z,19.82
2023-06-25T04:52:52.691Z,20.69
2023-06-25T04:58:00.061Z,19.02
2023-06-25T05:03:07.231Z,19.29
2023-06-25T05:08:14.541Z,19.91
2023-06-25T05:13:21.815Z,19.40
2023-06-25T05:18:29.260Z,10.94
2023-06-25T05:23:36.390Z,11.67
2023-06-25T05:28:43.776Z,10.35
2023-06-25T05:33:50.955Z,10.08
2023-06-25T05:38:58.422Z,9.96
2023-06-25T05:44:05.592Z,9.29
2023-06-25T05:49:12.924Z,8.99
2023-06-25T05:54:20.107Z,9.20
2023-06-25T05:59:27.484Z,8.82
2023-06-25T06:04:34.632Z,9.11
2023-06-25T06:09:42.124Z,9.24
2023-06-25T06:19:59.182Z,8.53
2023-06-25T06:25:18.156Z,8.54
2023-06-25T06:30:15.470Z,8.59
2023-06-25T06:35:38.807Z,8.58
2023-06-25T06:40:25.784Z,8.25
2023-06-25T06:45:45.947Z,8.54
2023-06-25T06:50:33.194Z,8.80
2023-06-25T06:55:53.639Z,8.91
2023-06-25T07:00:40.986Z,9.19
2023-06-25T07:06:01.173Z,9.13
2023-06-25T07:10:48.280Z,8.69
2023-06-25T07:16:10.821Z,8.39
2023-06-25T07:20:58.089Z,7.87
2023-06-25T07:26:16.408Z,7.73
2023-06-25T07:31:13.765Z,7.48
2023-06-25T07:36:24.606Z,7.25
2023-06-25T07:41:21.924Z,7.35
2023-06-25T07:46:34.419Z,7.25
2023-06-25T07:51:31.689Z,6.99
2023-06-25T07:56:45.208Z,7.16
2023-06-25T08:01:44.230Z,7.26
2023-06-25T08:06:53.566Z,7.90
2023-06-25T08:12:04.861Z,7.39
2023-06-25T08:17:02.068Z,7.56
2023-06-25T08:27:15.708Z,7.95
2023-06-25T08:37:26.741Z,8.15
2023-06-25T08:47:35.739Z,7.73
2023-06-25T08:52:47.428Z,7.92
2023-06-25T08:57:44.597Z,8.15
2023-06-25T09:03:00.983Z,7.45
2023-06-25T09:07:57.935Z,8.44
2023-06-25T09:13:18.130Z,7.66
2023-06-25T09:18:13.358Z,7.66
2023-06-25T09:23:20.832Z,6.94
2023-06-25T09:28:29.198Z,7.35
2023-06-25T09:33:36.412Z,7.21
2023-06-25T09:38:53.930Z,6.58
2023-06-25T09:43:45.117Z,6.50
2023-06-25T09:48:52.517Z,6.70
2023-06-25T09:53:59.733Z,6.26
2023-06-25T10:04:10.097Z,6.04
2023-06-25T10:09:30.537Z,6.72
2023-06-25T10:14:21.084Z,5.96
2023-06-25T10:19:34.025Z,6.04
2023-06-25T10:24:31.118Z,6.58
2023-06-25T10:29:49.629Z,6.58
2023-06-25T10:34:47.013Z,5.93
2023-06-25T10:40:03.716Z,5.72
2023-06-25T10:45:01.103Z,5.81
2023-06-25T10:50:14.738Z,5.34
2023-06-25T10:55:11.964Z,5.86
2023-06-25T11:00:19.888Z,5.13
2023-06-25T11:05:38.109Z,4.97
2023-06-25T11:10:27.558Z,4.87
2023-06-25T11:20:40.906Z,4.48
2023-06-25T11:30:51.963Z,4.36
2023-06-25T11:40:59.914Z,3.95
2023-06-25T11:46:18.175Z,3.93
2023-06-25T11:51:15.311Z,3.88
2023-06-25T11:56:34.679Z,3.67
2023-06-25T12:01:31.960Z,3.70
2023-06-25T12:06:42.371Z,3.61
2023-06-25T12:11:39.692Z,3.56
2023-06-25T12:16:50.753Z,3.67
2023-06-25T12:21:48.004Z,3.56
2023-06-25T12:26:59.215Z,3.68
2023-06-25T12:31:56.569Z,3.31
2023-06-25T12:37:09.428Z,3.53
2023-06-25T12:42:06.697Z,2.97
2023-06-25T12:47:26.321Z,2.90
2023-06-25T12:52:23.648Z,3.07
2023-06-25T12:57:36.721Z,3.46
2023-06-25T13:07:42.780Z,3.05
2023-06-25T13:17:52.727Z,2.93
2023-06-25T13:28:14.186Z,2.62
2023-06-25T13:38:17.741Z,3.09
2023-06-25T13:48:26.187Z,3.13
2023-06-25T13:58:40.529Z,3.47
2023-06-25T14:08:39.129Z,3.52
2023-06-25T14:18:48.184Z,3.18
2023-06-25T14:24:06.052Z,3.20
2023-06-25T14:29:11.196Z,3.07
2023-06-25T14:34:24.280Z,3.17
2023-06-25T14:39:11.630Z,2.99
2023-06-25T14:44:31.704Z,4.58
2023-06-25T14:49:19.125Z,3.49
2023-06-25T14:54:28.669Z,3.23
2023-06-25T14:59:36.149Z,3.09
2023-06-25T15:04:49.839Z,3.13
2023-06-25T15:10:35.169Z,3.26
2023-06-25T15:14:54.449Z,3.09
2023-06-25T15:19:51.798Z,3.23
2023-06-25T15:25:04.805Z,4.06
2023-06-25T15:35:12.380Z,4.85
2023-06-25T15:45:25.044Z,3.25
2023-06-25T15:50:32.294Z,3.08
2023-06-25T15:55:39.546Z,3.29
2023-06-25T16:00:58.979Z,3.69
2023-06-25T16:05:56.436Z,3.57
2023-06-25T16:11:16.621Z,3.34
2023-06-25T16:16:04.002Z,3.39
2023-06-25T16:21:23.743Z,3.33
2023-06-25T16:27:09.854Z,3.53
2023-06-25T16:31:32.070Z,3.58
2023-06-25T16:36:53.129Z,3.49
2023-06-25T16:41:41.368Z,3.29
2023-06-25T16:51:50.270Z,3.12
2023-06-25T17:02:05.129Z,3.28
2023-06-25T17:07:24.110Z,3.25
2023-06-25T17:12:21.427Z,2.80
2023-06-25T17:17:42.896Z,3.50
2023-06-25T17:22:30.078Z,2.83
2023-06-25T17:27:43.322Z,2.90
2023-06-25T17:32:40.716Z,2.51
2023-06-25T17:38:00.735Z,2.57
2023-06-25T17:42:48.036Z,2.37
2023-06-25T17:48:06.635Z,2.28
2023-06-25T17:53:03.827Z,2.26
2023-06-25T17:58:11.325Z,2.63
2023-06-25T18:03:28.572Z,2.69
2023-06-25T18:08:25.607Z,2.39
2023-06-25T18:18:38.330Z,2.66
2023-06-25T18:23:51.354Z,2.55
2023-06-25T18:28:48.610Z,3.02
2023-06-25T18:34:08.002Z,2.59
2023-06-25T18:39:05.253Z,2.88
2023-06-25T18:44:08.597Z,3.07
2023-06-25T18:49:15.987Z,3.20
2023-06-25T18:54:19.744Z,2.87
2023-06-25T18:59:27.056Z,3.20
2023-06-25T19:04:35.193Z,3.34
2023-06-25T19:09:43.314Z,3.20
2023-06-25T19:14:50.649Z,3.06
2023-06-25T19:20:06.289Z,3.31
2023-06-25T19:25:03.544Z,3.64
2023-06-25T19:30:12.690Z,3.66
2023-06-25T19:35:21.300Z,3.54
2023-06-25T19:40:35.312Z,3.79
2023-06-25T19:45:32.215Z,3.93
2023-06-25T19:50:43.936Z,4.10
2023-06-25T19:55:41.060Z,3.94
2023-06-25T20:00:49.437Z,4.41
2023-06-25T20:05:56.619Z,4.06
2023-06-25T20:11:04.704Z,3.82
2023-06-25T20:16:12.673Z,4.21
2023-06-25T20:21:20.487Z,4.61
2023-06-25T20:26:27.679Z,4.01
2023-06-25T20:31:34.978Z,4.16
2023-06-25T20:36:42.290Z,4.45
2023-06-25T20:41:49.688Z,4.32
2023-06-25T20:46:56.917Z,4.18
2023-06-25T20:52:04.223Z,4.00
2023-06-25T20:57:11.444Z,4.23
2023-06-25T21:02:18.930Z,4.19
2023-06-25T21:07:26.184Z,4.18
2023-06-25T21:12:33.409Z,4.08
2023-06-25T21:17:40.572Z,4.21
2023-06-25T21:22:47.874Z,4.49
2023-06-25T21:27:55.449Z,4.20
2023-06-25T21:33:02.887Z,4.52
2023-06-25T21:38:10.065Z,4.20
2023-06-25T21:43:17.375Z,4.62
2023-06-25T21:48:24.601Z,4.52
2023-06-25T21:53:32.034Z,4.39
2023-06-25T21:58:39.206Z,4.67
2023-06-25T22:03:46.630Z,4.63
2023-06-25T22:08:53.940Z,4.62
2023-06-25T22:14:01.321Z,4.98
2023-06-25T22:19:08.645Z,4.52
2023-06-25T22:24:15.954Z,4.87
2023-06-25T22:29:34.920Z,5.06
2023-06-25T22:34:30.106Z,4.81
2023-06-25T22:39:37.369Z,5.18
2023-06-25T22:44:44.629Z,5.03
2023-06-25T22:49:51.780Z,4.48
2023-06-25T22:54:59.139Z,4.68
2023-06-25T23:00:06.265Z,4.97
2023-06-25T23:05:13.670Z,5.21
2023-06-25T23:10:20.937Z,4.95
2023-06-25T23:15:28.297Z,5.28
2023-06-25T23:20:35.624Z,5.12
2023-06-25T23:25:42.958Z,5.13
2023-06-25T23:30:50.127Z,5.25
2023-06-25T23:35:57.370Z,5.03
2023-06-25T23:41:04.513Z,5.24
2023-06-25T23:46:11.921Z,5.04
2023-06-25T23:51:19.132Z,5.85
2023-06-25T23:56:26.518Z,5.45
